This is the latest recevied weather packets stored in our database for station/object KO6HRZ. If no packets are shown the sender has not sent any weather packets the latest 10 day(s).
| Time | Temp. | Humidity | Pressure | Rain* | Wind** | Luminosity | Snow |
|---|---|---|---|---|---|---|---|
| 1777229797 | 16.67° C | 71% | 1013.6 hPa | 0 mm | - | 408 W/m² | - |
| 1777229197 | 16.67° C | 73% | 1013.6 hPa | 0 mm | - | 359 W/m² | - |
| 1777228595 | 16.11° C | 79% | 1013.5 hPa | 0 mm | - | 966 W/m² | - |
| 1777227992 | 14.44° C | 86% | 1013.6 hPa | 0 mm | - | 731 W/m² | - |
| 1777227389 | 13.89° C | 87% | 1013.7 hPa | 0 mm | - | 225 W/m² | - |
| 1777226787 | 13.33° C | 87% | 1013.6 hPa | 0 mm | - | 219 W/m² | - |
| 1777226183 | 13.33° C | 86% | 1013.4 hPa | 0 mm | - | 143 W/m² | - |
| 1777225581 | 13.33° C | 85% | 1013.4 hPa | 0 mm | - | 128 W/m² | - |
| 1777224980 | 13.33° C | 85% | 1013.2 hPa | 0 mm | - | 129 W/m² | - |
| 1777224377 | 13.33° C | 85% | 1013.1 hPa | 0 mm | - | 96 W/m² | - |
| 1777223777 | 13.33° C | 85% | 1013 hPa | 0 mm | - | 138 W/m² | - |
| 1777223177 | 13.33° C | 85% | 1012.8 hPa | 0 mm | - | 120 W/m² | - |
| 1777222571 | 13.33° C | 85% | 1012.9 hPa | 0 mm | - | 132 W/m² | - |
| 1777221967 | 13.33° C | 87% | 1012.7 hPa | 0 mm | - | 191 W/m² | - |
| 1777221364 | 13.33° C | 88% | 1012.6 hPa | 0 mm | - | 177 W/m² | - |
| 1777220762 | 12.78° C | 89% | 1012.6 hPa | 0 mm | - | 146 W/m² | - |
| 1777220158 | 12.78° C | 90% | 1012.6 hPa | 0 mm | - | 156 W/m² | - |
| 1777219552 | 12.78° C | 90% | 1012.3 hPa | 0 mm | - | 149 W/m² | - |
| 1777218950 | 12.22° C | 91% | 1012.3 hPa | 0 mm | - | 120 W/m² | - |
| 1777218348 | 12.22° C | 93% | 1012.3 hPa | 0 mm | - | 113 W/m² | - |
| 1777217746 | 11.67° C | 93% | 1012.1 hPa | 0 mm | - | 86 W/m² | - |
| 1777217144 | 11.67° C | 94% | 1012.3 hPa | 0 mm | - | 71 W/m² | - |
| 1777216543 | 11.67° C | 94% | 1012 hPa | 0 mm | - | 59 W/m² | - |
| 1777215943 | 11.67° C | 95% | 1012.1 hPa | 0 mm | - | 48 W/m² | - |
| 1777215340 | 11.67° C | 95% | 1012 hPa | 0.51 mm | - | 37 W/m² | - |
* Rain latest hour (hover to see other rain measurements)
** Current wind speed in m/s (hover to see current wind gust speed)